Time;durP1;ratioP1;P1;durP2;ratioP2;P2;SDS_P1;SDS_P2;PMS_P1;PMS_P2;Temp;Humidity;BMP_temperature;BMP_pressure;BME280_temperature;BME280_humidity;BME280_pressure;Samples;Min_cycle;Max_cycle;Signal;HPM_P1;HPM_P2
2021/12/11 00:03:22;;;;;;;0.25;0.10;;;19.90;26.50;20.40;92711.00;;;;10275313;28;47106;-67
2021/12/11 00:08:29;;;;;;;0.90;0.20;;;19.90;26.50;20.40;92709.00;;;;10273997;28;46809;-66
2021/12/11 00:13:38;;;;;;;0.30;0.10;;;19.90;26.50;20.30;92711.00;;;;10274682;28;45328;-66
2021/12/11 00:18:40;;;;;;;0.45;0.10;;;19.90;26.50;20.40;92715.00;;;;10274152;28;46629;-66
2021/12/11 00:24:00;;;;;;;0.40;0.20;;;19.90;26.50;20.40;92730.00;;;;10274011;28;46509;-66
2021/12/11 00:29:04;;;;;;;0.22;0.15;;;19.90;26.50;20.40;92728.00;;;;10274177;28;45409;-65
2021/12/11 00:34:11;;;;;;;0.30;0.10;;;19.90;26.50;20.30;92745.00;;;;10274538;28;47373;-66
2021/12/11 00:39:14;;;;;;;0.77;0.10;;;19.90;26.50;20.30;92739.00;;;;10273741;28;47355;-67
2021/12/11 00:44:15;;;;;;;0.20;0.10;;;19.90;26.50;20.30;92751.00;;;;10274514;28;47392;-66
2021/12/11 00:49:21;;;;;;;0.43;0.10;;;19.80;26.40;20.30;92738.00;;;;10273868;28;46308;-67
2021/12/11 00:54:22;;;;;;;0.10;0.05;;;19.80;26.50;20.30;92768.00;;;;10273853;28;45641;-66
2021/12/11 00:59:23;;;;;;;0.28;0.10;;;19.80;26.50;20.30;92765.00;;;;10273032;28;45472;-67
2021/12/11 01:04:30;;;;;;;0.50;0.20;;;19.80;26.40;20.30;92778.00;;;;10273216;28;47329;-67
2021/12/11 01:09:42;;;;;;;0.25;0.08;;;19.80;26.40;20.30;92789.00;;;;10272714;28;46572;-67
2021/12/11 01:14:59;;;;;;;0.30;0.10;;;19.80;26.50;20.20;92813.00;;;;10273059;28;45435;-67
2021/12/11 01:20:04;;;;;;;;;;;19.80;26.50;20.20;92794.00;;;;10326856;22;47985;-61
2021/12/11 01:25:21;;;;;;;0.20;0.08;;;19.80;26.50;20.20;92815.00;;;;10330327;28;45298;-61
2021/12/11 01:30:34;;;;;;;0.13;0.05;;;19.80;26.50;20.20;92814.00;;;;10314286;28;45416;-61
2021/12/11 01:35:35;;;;;;;0.17;0.08;;;19.80;26.50;20.20;92822.00;;;;10312177;28;45395;-61
2021/12/11 01:40:36;;;;;;;0.20;0.10;;;19.80;26.50;20.20;92835.00;;;;10273675;28;45962;-61
2021/12/11 01:45:42;;;;;;;0.47;0.00;;;19.80;26.50;20.20;92851.00;;;;10273485;28;45190;-61
2021/12/11 01:50:51;;;;;;;0.17;0.10;;;19.80;26.50;20.20;92856.00;;;;10272414;28;45614;-60
2021/12/11 01:55:59;;;;;;;0.30;0.10;;;19.70;26.50;20.20;92857.00;;;;10272185;28;45507;-61
2021/12/11 02:01:15;;;;;;;0.35;0.10;;;19.80;26.50;20.30;92887.00;;;;10267857;28;46378;-61
2021/12/11 02:06:16;;;;;;;0.17;0.10;;;19.80;26.50;20.20;92883.00;;;;10268962;28;46979;-60
2021/12/11 02:11:23;;;;;;;0.20;0.10;;;19.80;26.50;20.20;92894.00;;;;10274076;28;47071;-61
2021/12/11 02:16:32;;;;;;;;;;;19.80;26.50;20.20;92903.00;;;;10312065;28;46899;-61
2021/12/11 02:21:56;;;;;;;0.15;0.10;;;19.80;26.50;20.20;92904.00;;;;10311061;28;45194;-61
2021/12/11 02:26:58;;;;;;;0.38;0.10;;;19.80;26.50;20.20;92913.00;;;;10311214;28;45970;-60
2021/12/11 02:32:32;;;;;;;0.10;0.00;;;19.80;26.50;20.20;92916.00;;;;10317829;28;46542;-60
2021/12/11 02:37:52;;;;;;;0.20;0.10;;;19.80;26.50;20.20;92898.00;;;;10318683;28;45219;-60
2021/12/11 02:43:25;;;;;;;0.17;0.08;;;19.80;26.50;20.20;92924.00;;;;10319330;28;45444;-61
2021/12/11 02:48:36;;;;;;;0.40;0.10;;;19.80;26.50;20.20;92902.00;;;;10318563;28;46753;-61
2021/12/11 02:53:45;;;;;;;0.22;0.10;;;19.70;26.60;20.20;92913.00;;;;10318534;28;46439;-61
2021/12/11 02:58:52;;;;;;;0.47;0.05;;;19.70;26.50;20.20;92924.00;;;;10318887;28;45216;-61
2021/12/11 03:04:19;;;;;;;0.20;0.10;;;19.70;26.60;20.20;92946.00;;;;10318014;28;47424;-61
2021/12/11 03:09:31;;;;;;;0.50;0.20;;;19.70;26.50;20.20;92937.00;;;;10317572;28;45511;-61
2021/12/11 03:14:32;;;;;;;0.57;0.10;;;19.70;26.60;20.20;92943.00;;;;10290069;28;46230;-61
2021/12/11 03:19:37;;;;;;;0.45;0.10;;;19.70;26.50;20.20;92949.00;;;;10275707;28;45338;-63
2021/12/11 03:24:38;;;;;;;0.00;0.00;;;19.70;26.60;20.20;92957.00;;;;10276872;28;45425;-61
2021/12/11 03:29:39;;;;;;;0.10;0.10;;;19.70;26.60;20.20;92971.00;;;;10275583;28;46799;-61
2021/12/11 03:34:42;;;;;;;0.10;0.05;;;19.70;26.60;20.20;92975.00;;;;10277903;28;45363;-60
2021/12/11 03:39:49;;;;;;;0.40;0.13;;;19.70;26.60;20.20;92974.00;;;;10259305;28;47117;-60
2021/12/11 03:44:50;;;;;;;0.10;0.10;;;19.70;26.60;20.20;92981.00;;;;10275498;28;46475;-61
2021/12/11 03:49:52;;;;;;;0.52;0.17;;;19.70;26.60;20.10;92980.00;;;;10291233;28;47174;-61
2021/12/11 03:54:54;;;;;;;0.17;0.00;;;19.70;26.50;20.10;92985.00;;;;10276903;28;46383;-60
2021/12/11 03:59:56;;;;;;;0.20;0.10;;;19.70;26.60;20.10;92977.00;;;;10275128;28;45396;-61
2021/12/11 04:05:01;;;;;;;0.55;0.10;;;19.70;26.60;20.10;92992.00;;;;10275833;28;45355;-60
2021/12/11 04:10:06;;;;;;;0.50;0.10;;;19.70;26.60;20.10;92994.00;;;;10258447;28;47130;-60
2021/12/11 04:15:09;;;;;;;0.47;0.10;;;19.70;26.50;20.10;93008.00;;;;10308787;28;45443;-60
2021/12/11 04:20:16;;;;;;;0.32;0.10;;;19.70;26.60;20.10;93003.00;;;;10314781;28;46205;-60
2021/12/11 04:25:20;;;;;;;0.52;0.10;;;19.70;26.50;20.10;93003.00;;;;10315184;28;45356;-60
2021/12/11 04:30:24;;;;;;;0.30;0.20;;;19.70;26.50;20.10;93008.00;;;;10330932;28;47451;-60
2021/12/11 04:35:28;;;;;;;0.25;0.20;;;19.70;26.50;20.10;92992.00;;;;10315076;28;45701;-60
2021/12/11 04:40:36;;;;;;;0.35;0.10;;;19.70;26.50;20.10;93006.00;;;;10314434;28;45238;-60
2021/12/11 04:45:44;;;;;;;0.65;0.10;;;19.70;26.50;20.10;93010.00;;;;10314614;28;48157;-60
2021/12/11 05:11:17;;;;;;;0.03;0.00;;;19.70;26.50;20.10;93034.00;;;;10237869;28;45231;-61
2021/12/11 05:16:17;;;;;;;0.10;0.10;;;19.70;26.50;20.20;93059.00;;;;10329662;28;47170;-61
2021/12/11 05:21:20;;;;;;;0.25;0.10;;;19.70;26.50;20.20;93077.00;;;;10296200;28;47122;-63
2021/12/11 05:26:22;;;;;;;0.22;0.10;;;19.80;26.50;20.20;93087.00;;;;10313223;28;45567;-61
2021/12/11 05:31:23;;;;;;;0.00;0.00;;;19.80;26.50;20.30;93076.00;;;;10313055;28;47073;-61
2021/12/11 05:36:27;;;;;;;0.08;0.00;;;19.80;26.50;20.30;93107.00;;;;10329389;28;47179;-61
2021/12/11 05:41:28;;;;;;;0.10;0.00;;;19.80;26.50;20.30;93110.00;;;;10313727;28;45565;-61
2021/12/11 05:46:29;;;;;;;0.00;0.00;;;19.80;26.40;20.30;93097.00;;;;10312211;28;47086;-62
2021/12/11 05:51:37;;;;;;;0.00;0.00;;;19.80;26.40;20.30;93108.00;;;;10312298;28;47406;-62
2021/12/11 05:56:39;;;;;;;0.00;0.00;;;19.90;26.40;20.30;93126.00;;;;10312598;28;45219;-62
2021/12/11 06:01:50;;;;;;;0.20;0.00;;;19.90;26.40;20.30;93151.00;;;;10313375;28;45436;-62
2021/12/11 06:06:54;;;;;;;0.30;0.10;;;19.90;26.40;20.30;93157.00;;;;10311471;28;46927;-61
2021/12/11 06:12:02;;;;;;;0.10;0.00;;;19.90;26.40;20.30;93163.00;;;;10303723;28;45389;-61
2021/12/11 06:17:07;;;;;;;0.00;0.00;;;19.90;26.40;20.40;93174.00;;;;10271338;28;47865;-61
2021/12/11 06:22:08;;;;;;;0.10;0.00;;;19.90;26.40;20.40;93184.00;;;;10270430;28;45423;-61
2021/12/11 06:27:09;;;;;;;0.15;0.00;;;20.00;26.40;20.40;93183.00;;;;10271084;28;45401;-61
2021/12/11 06:32:10;;;;;;;0.17;0.00;;;20.00;26.40;20.40;93207.00;;;;10271091;28;45233;-61
2021/12/11 06:37:14;;;;;;;0.00;0.00;;;20.00;26.40;20.40;93192.00;;;;10270890;28;45587;-61
2021/12/11 06:42:17;;;;;;;0.00;0.00;;;20.00;26.40;20.40;93219.00;;;;10271589;28;46025;-61
2021/12/11 06:47:18;;;;;;;0.13;0.00;;;20.00;26.30;20.40;93217.00;;;;10271795;28;45403;-61
2021/12/11 06:52:24;;;;;;;0.00;0.00;;;20.00;26.30;20.40;93241.00;;;;10272124;28;45545;-61
2021/12/11 06:57:25;;;;;;;0.03;0.00;;;20.00;26.30;20.40;93244.00;;;;10270736;28;45596;-62
2021/12/11 07:02:25;;;;;;;0.00;0.00;;;20.00;26.30;20.40;93263.00;;;;10270255;28;46057;-61
2021/12/11 07:07:32;;;;;;;1.02;0.00;;;20.00;26.30;20.50;93269.00;;;;10270425;28;46150;-61
2021/12/11 07:12:34;;;;;;;0.00;0.00;;;20.00;26.30;20.50;93272.00;;;;10267370;28;47381;-61
2021/12/11 07:17:34;;;;;;;0.20;0.10;;;20.00;26.30;20.50;93304.00;;;;10312920;28;45438;-62
2021/12/11 07:22:38;;;;;;;0.30;0.00;;;20.00;26.30;20.50;93310.00;;;;10317179;28;46984;-62
2021/12/11 07:27:39;;;;;;;0.10;0.08;;;20.10;26.30;20.50;93324.00;;;;10300791;28;47183;-62
2021/12/11 07:32:40;;;;;;;0.30;0.10;;;20.00;26.20;20.50;93332.00;;;;10316965;28;46148;-62
2021/12/11 07:37:49;;;;;;;0.00;0.00;;;20.00;26.20;20.50;93336.00;;;;10316850;28;45179;-62
2021/12/11 07:42:50;;;;;;;0.00;0.00;;;20.00;26.20;20.50;93362.00;;;;10316799;28;46100;-62
2021/12/11 07:47:52;;;;;;;0.22;0.00;;;20.00;26.30;20.50;93378.00;;;;10316341;28;46085;-61
2021/12/11 07:52:54;;;;;;;0.00;0.00;;;20.00;26.30;20.50;93385.00;;;;10316276;28;45485;-61
2021/12/11 07:57:55;;;;;;;0.17;0.00;;;20.10;26.40;20.60;93371.00;;;;10315861;28;47554;-60
2021/12/11 08:02:56;;;;;;;0.10;0.00;;;20.10;26.40;20.60;93409.00;;;;10317240;28;45183;-61
2021/12/11 08:08:00;;;;;;;0.08;0.00;;;20.10;26.40;20.60;93423.00;;;;10317039;28;45293;-61
2021/12/11 08:13:04;;;;;;;0.10;0.00;;;20.10;26.40;20.50;93429.00;;;;10298827;28;47071;-61
2021/12/11 08:18:08;;;;;;;0.00;0.00;;;20.10;26.40;20.60;93433.00;;;;10274817;28;45543;-62
2021/12/11 08:23:11;;;;;;;0.00;0.00;;;20.10;26.40;20.60;93433.00;;;;10274227;28;47886;-62
2021/12/11 08:28:17;;;;;;;0.05;0.00;;;20.10;26.40;20.60;93455.00;;;;10273592;28;45321;-62
2021/12/11 08:33:18;;;;;;;0.00;0.00;;;20.10;26.50;20.50;93473.00;;;;10275067;28;46493;-62
2021/12/11 08:38:19;;;;;;;0.93;0.00;;;20.10;26.50;20.50;93473.00;;;;10273503;28;45193;-62
2021/12/11 08:43:22;;;;;;;0.20;0.08;;;20.10;26.50;20.50;93482.00;;;;10274572;28;45439;-62
2021/12/11 08:48:25;;;;;;;0.00;0.00;;;20.10;26.50;20.50;93488.00;;;;10273617;28;45426;-61
2021/12/11 08:53:26;;;;;;;0.00;0.00;;;20.10;26.40;20.50;93509.00;;;;10274061;28;45359;-62
2021/12/11 08:58:29;;;;;;;0.20;0.10;;;20.00;26.20;20.50;93519.00;;;;10273377;28;47438;-60
2021/12/11 09:03:47;;;;;;;0.45;0.00;;;20.10;26.40;20.60;93538.00;;;;10273611;28;47293;-65
2021/12/11 09:09:18;;;;;;;0.25;0.00;;;20.10;26.70;20.70;93543.00;;;;10273371;28;48154;-65
2021/12/11 09:14:29;;;;;;;0.00;0.00;;;20.20;27.20;20.60;93557.00;;;;10295231;28;45360;-61
2021/12/11 09:19:38;;;;;;;0.22;0.00;;;20.20;26.70;20.70;93551.00;;;;10297748;28;45451;-62
2021/12/11 09:24:59;;;;;;;1.25;0.00;;;20.20;27.10;20.70;93579.00;;;;10277315;28;47294;-61
2021/12/11 09:30:21;;;;;;;0.00;0.00;;;20.20;27.00;20.60;93588.00;;;;10259503;28;47050;-61
2021/12/11 09:35:34;;;;;;;0.80;0.00;;;20.20;26.90;20.70;93598.00;;;;10279945;28;45300;-61
2021/12/11 09:40:35;;;;;;;1.88;0.10;;;20.20;26.70;20.70;93607.00;;;;10297764;28;46468;-60
2021/12/11 09:45:41;;;;;;;0.63;0.10;;;20.20;26.60;20.70;93616.00;;;;10280193;28;45246;-60
2021/12/11 09:50:54;;;;;;;1.20;0.00;;;20.20;26.50;20.70;93636.00;;;;10272012;28;46326;-63
2021/12/11 09:55:56;;;;;;;0.00;0.00;;;20.20;26.70;20.80;93632.00;;;;10271911;28;46439;-62
2021/12/11 10:01:09;;;;;;;0.15;0.00;;;20.30;26.70;20.80;93643.00;;;;10271856;28;46466;-60
2021/12/11 10:11:55;;;;;;;0.03;0.03;;;20.30;26.40;20.70;93641.00;;;;10241411;28;45419;-63
2021/12/11 10:17:01;;;;;;;0.00;0.00;;;20.20;26.40;20.80;93655.00;;;;10272481;28;45639;-61
2021/12/11 10:22:16;;;;;;;0.22;0.00;;;20.30;26.60;20.70;93676.00;;;;10261658;28;45355;-60
2021/12/11 10:27:23;;;;;;;0.90;0.00;;;20.30;26.40;20.70;93673.00;;;;10241592;28;47073;-59
2021/12/11 10:32:31;;;;;;;1.10;0.10;;;20.30;26.50;20.60;93671.00;;;;10270074;28;45746;-58
2021/12/11 10:37:36;;;;;;;1.33;0.10;;;20.30;26.50;20.70;93680.00;;;;10270268;28;45262;-59
2021/12/11 10:42:38;;;;;;;0.20;0.10;;;20.20;26.50;20.80;93695.00;;;;10269027;28;46193;-58
2021/12/11 10:47:51;;;;;;;0.20;0.00;;;20.30;26.50;20.70;93680.00;;;;10268234;28;45509;-60
2021/12/11 10:52:52;;;;;;;0.40;0.10;;;20.30;26.40;20.70;93690.00;;;;10273737;28;47016;-60
2021/12/11 10:57:57;;;;;;;1.50;0.10;;;20.30;26.40;20.70;93696.00;;;;10243113;28;45228;-59
2021/12/11 11:02:58;;;;;;;0.17;0.10;;;20.30;26.40;20.80;93716.00;;;;10252761;28;45458;-63
2021/12/11 11:08:01;;;;;;;0.55;0.13;;;20.30;26.40;20.80;93718.00;;;;10237120;28;45244;-63
2021/12/11 11:13:07;;;;;;;0.00;0.00;;;20.40;26.40;20.80;93720.00;;;;10270411;28;46959;-64
2021/12/11 11:18:10;;;;;;;;;;;20.40;26.50;20.80;93724.00;;;;10316919;28;47041;-64
2021/12/11 11:23:11;;;;;;;0.10;0.10;;;20.40;26.50;20.80;93724.00;;;;10295091;28;45681;-64
2021/12/11 11:28:16;;;;;;;1.02;0.10;;;20.40;26.70;20.80;93749.00;;;;10274582;28;46386;-60
2021/12/11 11:33:17;;;;;;;1.10;0.08;;;20.40;26.60;20.80;93752.00;;;;10273455;28;45589;-59
2021/12/11 11:38:30;;;;;;;0.35;0.20;;;20.40;26.70;20.80;93740.00;;;;10259553;28;46524;-61
2021/12/11 11:43:30;;;;;;;1.08;0.10;;;20.30;26.70;20.70;93751.00;;;;10249287;28;46243;-60
2021/12/11 11:48:35;;;;;;;0.10;0.10;;;20.30;26.70;20.70;93759.00;;;;10274203;28;45296;-60
2021/12/11 11:53:36;;;;;;;0.55;0.20;;;20.30;26.60;20.70;93765.00;;;;10248491;28;45174;-61
2021/12/11 11:58:38;;;;;;;0.40;0.20;;;20.20;26.60;20.70;93777.00;;;;10234256;28;46254;-62
2021/12/11 12:03:39;;;;;;;0.10;0.03;;;20.20;26.80;20.70;93776.00;;;;10233337;28;45584;-61
2021/12/11 12:08:43;;;;;;;0.03;0.03;;;20.20;26.40;20.70;93764.00;;;;10244275;28;47476;-63
2021/12/11 12:13:43;;;;;;;0.10;0.10;;;20.30;26.40;20.70;93783.00;;;;10297255;28;48012;-63
2021/12/11 12:18:45;;;;;;;0.08;0.08;;;20.30;26.60;20.70;93802.00;;;;10314059;28;45254;-61
2021/12/11 12:23:46;;;;;;;0.55;0.10;;;20.30;26.60;20.70;93798.00;;;;10314731;28;46313;-61
2021/12/11 12:28:48;;;;;;;0.38;0.10;;;20.30;26.70;20.80;93810.00;;;;10296011;28;46366;-60
2021/12/11 12:33:48;;;;;;;0.50;0.20;;;20.20;26.70;20.70;93813.00;;;;10273986;28;45893;-61
2021/12/11 12:38:50;;;;;;;0.47;0.10;;;20.30;26.80;20.80;93825.00;;;;10273820;28;45381;-60
2021/12/11 12:44:17;;;;;;;0.20;0.10;;;20.30;26.70;20.70;93825.00;;;;10274760;28;46189;-62
2021/12/11 12:49:19;;;;;;;0.10;0.10;;;20.30;26.80;20.70;93828.00;;;;10273938;28;46518;-59
2021/12/11 12:54:22;;;;;;;0.38;0.20;;;20.30;26.70;20.80;93826.00;;;;10273891;28;45211;-61
2021/12/11 12:59:32;;;;;;;0.17;0.10;;;20.30;26.70;20.70;93830.00;;;;10273108;28;45448;-61
2021/12/11 13:04:48;;;;;;;0.08;0.08;;;20.30;26.70;20.80;93841.00;;;;10273928;28;45437;-59
2021/12/11 13:09:58;;;;;;;0.13;0.10;;;20.30;26.70;20.70;93863.00;;;;10257433;28;47183;-60
2021/12/11 13:15:07;;;;;;;0.22;0.10;;;20.30;26.70;20.80;93860.00;;;;10304844;28;45332;-60
2021/12/11 13:20:17;;;;;;;0.20;0.10;;;20.30;26.70;20.80;93851.00;;;;10309232;28;45492;-59
2021/12/11 13:25:31;;;;;;;4.15;0.10;;;20.30;26.90;20.10;93872.00;;;;10305310;28;45481;-60
2021/12/11 13:30:47;;;;;;;0.20;0.00;;;20.00;26.10;20.30;93872.00;;;;10300402;28;48165;-61
2021/12/11 13:35:52;;;;;;;0.00;0.00;;;19.90;26.30;20.50;93878.00;;;;10297188;28;45334;-62
2021/12/11 13:41:09;;;;;;;0.38;0.20;;;20.00;26.80;20.60;93883.00;;;;10256445;28;46809;-60
2021/12/11 13:46:12;;;;;;;1.15;0.30;;;20.10;27.10;20.50;93883.00;;;;10271032;28;47032;-60
2021/12/11 13:51:24;;;;;;;2.85;0.90;;;20.10;26.80;20.50;93901.00;;;;10271127;28;45400;-61
2021/12/11 13:56:40;;;;;;;2.10;0.90;;;20.10;26.70;20.70;93933.00;;;;10271080;28;46255;-60
2021/12/11 14:01:42;;;;;;;5.07;1.90;;;20.20;27.50;20.60;93939.00;;;;10271584;28;45397;-61
2021/12/11 14:06:49;;;;;;;1.70;1.10;;;20.20;27.20;20.60;93959.00;;;;10270470;28;46679;-61
2021/12/11 14:11:51;;;;;;;4.50;1.20;;;20.20;27.70;20.70;93968.00;;;;10272176;28;45428;-59
2021/12/11 14:16:51;;;;;;;2.80;0.80;;;20.20;27.70;20.70;93964.00;;;;10309811;28;45272;-60
2021/12/11 14:21:54;;;;;;;0.88;0.75;;;20.20;27.40;20.70;93960.00;;;;10310284;28;47339;-60
2021/12/11 14:26:57;;;;;;;1.58;1.00;;;20.20;27.30;20.70;93986.00;;;;10310858;28;45243;-60
2021/12/11 14:31:59;;;;;;;0.98;0.70;;;20.20;27.10;20.70;93992.00;;;;10309636;28;45219;-63
2021/12/11 14:37:03;;;;;;;0.50;0.50;;;20.20;27.40;20.80;93989.00;;;;10314952;28;45375;-60
2021/12/11 14:42:04;;;;;;;0.63;0.45;;;20.30;27.30;20.80;93991.00;;;;10317033;28;45176;-60
2021/12/11 14:47:08;;;;;;;0.95;0.70;;;20.30;27.60;20.80;94005.00;;;;10305785;28;46315;-59
2021/12/11 14:52:14;;;;;;;0.50;0.38;;;20.30;27.20;20.70;94014.00;;;;10276588;28;45230;-60
2021/12/11 14:57:16;;;;;;;0.33;0.30;;;20.40;26.30;20.60;94012.00;;;;10276598;28;46685;-59
2021/12/11 15:02:33;;;;;;;2.25;0.50;;;20.30;26.30;20.50;94027.00;;;;10255779;28;47230;-61
2021/12/11 15:07:36;;;;;;;0.30;0.30;;;20.20;26.80;20.60;94054.00;;;;10274762;28;45442;-61
2021/12/11 15:12:37;;;;;;;0.45;0.38;;;20.20;27.20;20.70;94042.00;;;;10286003;28;45304;-63
2021/12/11 15:17:38;;;;;;;0.40;0.30;;;20.20;27.00;20.70;94058.00;;;;10275940;28;45789;-63
2021/12/11 15:22:39;;;;;;;0.40;0.30;;;20.30;27.20;20.80;94060.00;;;;10274709;28;46721;-60
2021/12/11 15:27:41;;;;;;;0.70;0.40;;;20.30;27.20;20.80;94067.00;;;;10283927;28;46563;-62
2021/12/11 15:32:42;;;;;;;0.68;0.38;;;20.30;27.10;20.80;94072.00;;;;10315301;28;45213;-62
2021/12/11 15:37:44;;;;;;;0.25;0.20;;;20.30;27.00;20.80;94074.00;;;;10315437;28;45238;-62
2021/12/11 15:42:47;;;;;;;0.30;0.25;;;20.30;27.00;20.80;94077.00;;;;10292058;28;46618;-62
2021/12/11 15:47:53;;;;;;;0.10;0.10;;;20.30;27.20;20.80;94089.00;;;;10274282;28;46072;-62
2021/12/11 15:52:55;;;;;;;0.25;0.20;;;20.40;27.30;20.80;94104.00;;;;10289157;28;45394;-62
2021/12/11 15:57:58;;;;;;;0.25;0.20;;;20.40;27.10;20.80;94100.00;;;;10273432;28;46424;-61
2021/12/11 16:02:58;;;;;;;0.20;0.20;;;20.40;27.00;20.90;94111.00;;;;10273593;28;48065;-61
2021/12/11 16:08:00;;;;;;;1.80;0.40;;;20.40;26.90;20.90;94119.00;;;;10273533;28;46484;-62
2021/12/11 16:13:00;;;;;;;0.80;0.60;;;20.40;26.90;20.80;94128.00;;;;10282583;28;45546;-61
2021/12/11 16:18:02;;;;;;;1.08;0.80;;;20.40;27.00;20.90;94113.00;;;;10314372;28;46680;-63
2021/12/11 16:23:03;;;;;;;1.20;0.80;;;20.40;26.70;20.90;94130.00;;;;10315664;28;45356;-62
2021/12/11 16:28:11;;;;;;;4.55;2.50;;;20.40;27.00;20.80;94138.00;;;;10301669;28;46521;-60
2021/12/11 16:33:12;;;;;;;5.85;3.40;;;20.40;26.90;20.90;94136.00;;;;10273454;28;45478;-60
2021/12/11 16:38:25;;;;;;;4.80;2.90;;;20.40;26.70;20.90;94153.00;;;;10272809;28;46673;-60
2021/12/11 16:43:26;;;;;;;4.20;2.55;;;20.40;26.80;20.90;94164.00;;;;10273500;28;45534;-61
2021/12/11 16:48:32;;;;;;;3.10;2.03;;;20.40;26.80;20.90;94151.00;;;;10256163;28;46933;-60
2021/12/11 16:53:40;;;;;;;3.40;2.10;;;20.40;27.00;21.00;94158.00;;;;10272963;28;46003;-64
2021/12/11 16:58:42;;;;;;;2.08;1.48;;;20.50;27.40;21.00;94159.00;;;;10271381;28;45183;-64
2021/12/11 17:03:43;;;;;;;3.08;1.23;;;20.50;28.00;21.10;94178.00;;;;10272934;28;45465;-61
2021/12/11 17:08:45;;;;;;;2.17;1.30;;;20.60;27.90;21.00;94183.00;;;;10267406;28;46649;-60
2021/12/11 17:13:46;;;;;;;1.88;1.00;;;20.50;27.80;21.00;94182.00;;;;10294194;28;47394;-59
2021/12/11 17:18:47;;;;;;;2.85;1.13;;;20.50;27.80;21.00;94198.00;;;;10312527;28;45299;-60
2021/12/11 17:23:47;;;;;;;3.60;1.30;;;20.50;27.90;21.00;94195.00;;;;10314329;28;46731;-60
2021/12/11 17:28:58;;;;;;;4.72;1.95;;;20.50;27.90;21.00;94213.00;;;;10277527;28;46996;-61
2021/12/11 17:33:59;;;;;;;4.15;1.50;;;20.50;28.10;21.00;94211.00;;;;10272220;28;45269;-60
2021/12/11 17:39:02;;;;;;;5.60;1.70;;;20.50;28.00;21.00;94230.00;;;;10269610;28;45180;-63
2021/12/11 17:44:06;;;;;;;4.68;1.80;;;20.50;28.10;21.10;94230.00;;;;10282386;28;45324;-62
2021/12/11 17:49:10;;;;;;;7.22;1.73;;;20.50;28.50;21.10;94243.00;;;;10295006;28;45350;-64
2021/12/11 17:54:18;;;;;;;6.53;2.10;;;20.50;28.80;21.10;94240.00;;;;10305778;28;45592;-64
2021/12/11 17:59:22;;;;;;;7.10;2.58;;;20.60;28.80;21.10;94242.00;;;;10267229;28;45191;-60
2021/12/11 18:04:30;;;;;;;5.70;1.85;;;20.60;28.80;21.10;94245.00;;;;10267310;28;47108;-61
2021/12/11 18:09:37;;;;;;;5.88;2.25;;;20.60;28.80;21.10;94251.00;;;;10255126;28;47042;-62
2021/12/11 18:14:47;;;;;;;7.93;2.20;;;20.60;28.80;21.20;94253.00;;;;10300857;28;46995;-63
2021/12/11 18:20:00;;;;;;;6.53;2.15;;;20.60;28.60;21.20;94265.00;;;;10312195;28;45317;-64
2021/12/11 18:25:07;;;;;;;12.90;5.20;;;20.60;28.80;21.20;94273.00;;;;10327986;28;47208;-64
2021/12/11 18:30:14;;;;;;;17.67;9.32;;;20.70;28.80;21.20;94261.00;;;;10311226;28;45251;-64
2021/12/11 18:35:25;;;;;;;24.98;13.27;;;20.60;28.70;21.20;94274.00;;;;10311262;28;45297;-61
2021/12/11 18:40:49;;;;;;;26.23;13.50;;;20.70;28.80;21.20;94283.00;;;;10310792;28;45237;-61
2021/12/11 18:45:54;;;;;;;26.88;14.60;;;20.70;28.90;21.20;94300.00;;;;10305624;28;46450;-62
2021/12/11 18:51:11;;;;;;;25.35;14.30;;;20.70;28.90;21.20;94297.00;;;;10269480;28;45301;-62
2021/12/11 18:56:13;;;;;;;27.08;14.05;;;20.70;29.00;21.20;94305.00;;;;10309750;28;47027;-62
2021/12/11 19:01:28;;;;;;;25.48;13.98;;;20.70;28.90;21.20;94287.00;;;;10279049;28;45485;-62
2021/12/11 19:06:33;;;;;;;27.52;13.30;;;20.70;28.90;21.20;94300.00;;;;10269271;28;45160;-61
2021/12/11 19:11:48;;;;;;;19.17;10.77;;;20.70;28.90;21.30;94307.00;;;;10271645;28;45402;-65
2021/12/11 19:16:50;;;;;;;18.38;10.68;;;20.80;29.50;21.20;94321.00;;;;10276795;28;47949;-62
2021/12/11 19:22:00;;;;;;;15.43;8.40;;;20.70;28.70;21.10;94313.00;;;;10276707;28;45295;-61
2021/12/11 19:27:06;;;;;;;15.45;8.40;;;20.70;28.20;21.10;94311.00;;;;10260245;28;47370;-60
2021/12/11 19:32:09;;;;;;;13.95;7.00;;;20.60;28.00;21.10;94351.00;;;;10278055;28;45171;-62
2021/12/11 19:37:11;;;;;;;12.23;6.57;;;20.60;27.80;21.10;94343.00;;;;10276507;28;46579;-61
2021/12/11 19:42:13;;;;;;;14.90;6.57;;;20.60;27.70;21.00;94336.00;;;;10276179;28;45329;-61
2021/12/11 19:47:17;;;;;;;9.52;5.18;;;20.60;27.70;21.00;94347.00;;;;10276296;28;45274;-60
2021/12/11 19:52:24;;;;;;;9.98;5.90;;;20.60;27.60;21.00;94349.00;;;;10277231;28;45220;-61
2021/12/11 19:57:29;;;;;;;9.00;5.28;;;20.60;27.60;21.00;94362.00;;;;10275443;28;45176;-61
2021/12/11 20:02:34;;;;;;;10.65;5.20;;;20.60;27.50;21.00;94362.00;;;;10275507;28;45332;-62
2021/12/11 20:07:35;;;;;;;8.32;4.70;;;20.50;27.40;21.00;94382.00;;;;10258989;28;46746;-60
2021/12/11 20:12:59;;;;;;;9.07;4.80;;;20.60;27.30;21.00;94377.00;;;;10271316;28;47186;-63
2021/12/11 20:18:12;;;;;;;9.20;4.63;;;20.50;27.30;21.00;94369.00;;;;10314885;28;45458;-62
2021/12/11 20:23:16;;;;;;;7.88;4.60;;;20.50;27.30;21.00;94375.00;;;;10314058;28;47144;-63
2021/12/11 20:28:19;;;;;;;6.72;4.13;;;20.50;27.20;21.00;94379.00;;;;10299614;28;46233;-63
2021/12/11 20:33:20;;;;;;;7.88;4.25;;;20.50;27.20;21.00;94380.00;;;;10270993;28;45498;-63
2021/12/11 20:38:25;;;;;;;7.40;4.15;;;20.50;27.20;21.00;94388.00;;;;10254418;28;45580;-63
2021/12/11 20:43:28;;;;;;;5.33;3.50;;;20.50;27.20;21.00;94384.00;;;;10255567;28;45336;-62
2021/12/11 20:48:32;;;;;;;6.57;3.42;;;20.50;27.10;21.00;94387.00;;;;10232170;28;47173;-60
2021/12/11 20:53:35;;;;;;;5.68;3.35;;;20.50;27.10;21.00;94402.00;;;;10235507;28;45631;-60
2021/12/11 20:58:36;;;;;;;5.65;3.10;;;20.50;27.10;21.00;94399.00;;;;10256439;28;45326;-61
2021/12/11 21:03:41;;;;;;;5.38;3.25;;;20.50;27.10;20.90;94406.00;;;;10283195;28;45239;-60
2021/12/11 21:08:50;;;;;;;5.63;3.30;;;20.50;27.00;21.00;94410.00;;;;10276683;28;45188;-62
2021/12/11 21:13:55;;;;;;;7.18;3.20;;;20.50;27.00;20.90;94395.00;;;;10290344;28;46724;-61
2021/12/11 21:19:09;;;;;;;5.05;2.70;;;20.50;27.00;20.90;94416.00;;;;10272626;28;46762;-61
2021/12/11 21:24:26;;;;;;;5.13;2.70;;;20.50;27.00;20.90;94402.00;;;;10269757;28;45786;-63
2021/12/11 21:29:27;;;;;;;5.35;2.67;;;20.50;26.90;20.90;94412.00;;;;10268923;28;45154;-63
2021/12/11 21:34:30;;;;;;;3.40;2.22;;;20.40;26.80;20.80;94404.00;;;;10273370;28;45635;-60
2021/12/11 21:39:39;;;;;;;3.78;2.25;;;20.40;26.80;20.80;94398.00;;;;10271966;28;45410;-62
2021/12/11 21:44:40;;;;;;;3.95;2.20;;;20.40;26.80;20.80;94406.00;;;;10272240;28;46756;-63
2021/12/11 21:49:50;;;;;;;3.30;1.80;;;20.40;26.80;20.70;94420.00;;;;10270894;28;46986;-63
2021/12/11 21:54:57;;;;;;;2.80;1.80;;;20.30;26.70;20.70;94418.00;;;;10272268;28;47016;-60
2021/12/11 22:00:44;;;;;;;2.63;1.50;;;20.30;26.60;20.70;94427.00;;;;10288177;28;47251;-61
2021/12/11 22:06:00;;;;;;;3.30;1.60;;;20.30;26.70;20.70;94442.00;;;;10270991;28;46261;-61
2021/12/11 22:11:08;;;;;;;2.72;1.30;;;20.30;26.60;20.70;94455.00;;;;10255519;28;48522;-60
2021/12/11 22:16:21;;;;;;;2.15;1.20;;;20.20;26.50;20.70;94446.00;;;;10312321;28;45556;-61
2021/12/11 22:21:25;;;;;;;2.30;1.20;;;20.20;26.50;20.60;94461.00;;;;10311771;28;46006;-60
2021/12/11 22:26:41;;;;;;;1.13;0.90;;;20.20;26.50;20.60;94472.00;;;;10311753;28;45189;-60
2021/12/11 22:31:47;;;;;;;1.60;0.90;;;20.20;26.50;20.60;94475.00;;;;10311114;28;46701;-64
2021/12/11 22:36:49;;;;;;;1.63;0.90;;;20.20;26.40;20.60;94483.00;;;;10311057;28;46634;-63
2021/12/11 22:41:54;;;;;;;1.50;0.90;;;20.20;26.40;20.60;94486.00;;;;10294087;28;46943;-63
2021/12/11 22:47:09;;;;;;;2.33;1.02;;;20.10;26.40;20.60;94486.00;;;;10312451;28;48093;-62
2021/12/11 22:52:14;;;;;;;0.90;0.60;;;20.10;26.30;20.50;94496.00;;;;10318021;28;45975;-61